Time;durP1;ratioP1;P1;durP2;ratioP2;P2;SDS_P1;SDS_P2;PMS_P1;PMS_P2;Temp;Humidity;BMP_temperature;BMP_pressure;BME280_temperature;BME280_humidity;BME280_pressure;Samples;Min_cycle;Max_cycle;Signal;HPM_P1;HPM_P2
2023/07/09 08:19:44;;;;;;;16.67;7.87;;;;;;;31.86;40.58;97013.09;2085314;28;20556;-57
2023/07/09 08:22:22;;;;;;;13.63;3.90;;;;;;;31.91;40.40;97007.13;2107649;27;20583;-57
2023/07/09 08:24:56;;;;;;;6.60;3.20;;;;;;;31.95;40.39;97021.91;2102079;27;20923;-57
2023/07/09 08:27:28;;;;;;;8.07;3.13;;;;;;;31.95;40.33;97015.66;2101096;27;20554;-57
2023/07/09 08:30:04;;;;;;;10.43;3.90;;;;;;;32.31;40.59;97020.94;2089334;27;21054;-57
2023/07/09 08:32:41;;;;;;;6.10;3.30;;;;;;;32.59;39.62;97020.06;2085010;28;20559;-57
2023/07/09 08:35:21;;;;;;;7.23;2.67;;;;;;;32.07;40.08;97011.38;2084760;28;20588;-57
2023/07/09 08:38:14;;;;;;;48.07;38.33;;;;;;;32.39;40.36;97014.53;2087150;28;20552;-57
2023/07/09 08:41:36;;;;;;;11.40;5.90;;;;;;;32.55;39.84;97018.81;2084096;28;20558;-57
2023/07/09 08:44:35;;;;;;;7.47;3.40;;;;;;;32.47;40.27;97017.09;2092749;27;20621;-57
2023/07/09 08:47:35;;;;;;;6.37;3.23;;;;;;;32.30;39.31;97015.75;2100034;27;21084;-58
2023/07/09 08:48:42;;;;;;;10.43;3.17;;;;;;;32.38;39.21;97013.72;2097689;28;20436;-58
2023/07/09 08:51:40;;;;;;;8.93;3.20;;;;;;;31.62;39.69;97019.72;2092739;27;20570;-57
2023/07/09 08:52:44;;;;;;;8.37;3.20;;;;;;;31.60;39.70;97013.66;2090154;28;20789;-57
2023/07/09 08:55:53;;;;;;;8.70;3.50;;;;;;;31.41;39.77;97024.09;2107074;27;20590;-57
2023/07/09 08:57:00;;;;;;;6.60;2.97;;;;;;;31.58;39.83;97024.66;2109370;28;20428;-57
2023/07/09 09:00:07;;;;;;;17.30;3.30;;;;;;;31.46;39.84;97022.66;2082910;28;20566;-57
2023/07/09 09:01:22;;;;;;;14.23;3.60;;;;;;;31.91;39.41;97017.94;2080475;28;20416;-57
2023/07/09 09:02:34;;;;;;;6.40;3.50;;;;;;;32.44;38.50;97027.47;2082108;28;20437;-58
2023/07/09 09:05:46;;;;;;;8.30;3.23;;;;;;;32.48;37.99;97023.31;2085645;27;20567;-57
2023/07/09 09:06:53;;;;;;;4.70;2.80;;;;;;;32.24;38.09;97015.50;2080752;28;20427;-58
2023/07/09 09:08:19;;;;;;;6.43;3.30;;;;;;;32.23;37.81;97023.81;2083282;28;20454;-57
2023/07/09 09:11:53;;;;;;;4.60;3.03;;;;;;;32.17;37.96;97017.28;2101355;27;20564;-57
2023/07/09 09:13:29;;;;;;;8.87;3.47;;;;;;;31.79;38.26;97014.91;2099360;28;20428;-57
2023/07/09 09:14:35;;;;;;;6.60;2.90;;;;;;;31.95;38.11;97030.00;2090835;28;20490;-57
2023/07/09 09:15:39;;;;;;;13.87;3.50;;;;;;;32.01;37.90;97026.53;2090078;28;20449;-57
2023/07/09 09:19:27;;;;;;;8.10;3.60;;;;;;;32.18;38.47;97037.88;2089438;28;20952;-57
2023/07/09 09:20:29;;;;;;;7.37;4.17;;;;;;;32.09;38.28;97022.84;2085096;28;20516;-57
2023/07/09 09:21:36;;;;;;;7.17;3.53;;;;;;;31.97;38.77;97017.13;2081177;28;20434;-57
2023/07/09 09:22:46;;;;;;;7.00;3.73;;;;;;;31.80;38.69;97021.16;2080073;28;20485;-57
2023/07/09 09:23:54;;;;;;;7.37;3.50;;;;;;;31.96;38.50;97025.44;2078260;28;20431;-57
2023/07/09 09:25:14;;;;;;;9.13;3.13;;;;;;;31.98;38.78;97020.69;2082485;28;20488;-57
2023/07/09 09:28:55;;;;;;;5.80;3.00;;;;;;;32.21;38.03;97029.41;2106887;27;20564;-57
2023/07/09 09:29:56;;;;;;;5.23;3.13;;;;;;;32.60;37.62;97023.63;2104589;27;21128;-57
2023/07/09 09:30:58;;;;;;;6.40;3.23;;;;;;;32.84;37.49;97025.84;2103370;28;20934;-57
2023/07/09 09:32:15;;;;;;;9.57;3.73;;;;;;;33.03;36.53;97026.94;2103089;28;20511;-58
2023/07/09 09:33:18;;;;;;;5.97;3.57;;;;;;;32.72;37.60;97027.41;2100843;28;20432;-58
2023/07/09 09:34:22;;;;;;;6.37;3.60;;;;;;;31.87;37.91;97022.88;2101925;28;20474;-58
2023/07/09 09:35:34;;;;;;;6.77;3.60;;;;;;;32.17;37.79;97019.97;2103143;28;20452;-58
2023/07/09 09:36:37;;;;;;;8.93;3.27;;;;;;;32.35;37.00;97024.94;2103780;28;20882;-58
2023/07/09 09:37:39;;;;;;;8.30;3.40;;;;;;;32.56;37.21;97018.59;2103456;28;20463;-58
2023/07/09 09:41:46;;;;;;;7.60;3.03;;;;;;;32.88;37.11;97015.47;2086215;28;20656;-57
2023/07/09 09:42:48;;;;;;;6.43;3.00;;;;;;;33.46;36.50;97023.16;2082660;28;20473;-57
2023/07/09 09:43:53;;;;;;;6.83;3.83;;;;;;;33.56;35.36;97025.47;2083860;28;20974;-58
2023/07/09 09:44:55;;;;;;;6.07;3.27;;;;;;;33.29;35.83;97021.88;2082270;28;20982;-57
2023/07/09 09:46:00;;;;;;;10.80;2.90;;;;;;;33.47;35.68;97032.94;2070337;28;20439;-57
2023/07/09 09:47:01;;;;;;;4.43;3.10;;;;;;;33.18;35.06;97032.22;2069569;28;20494;-57
2023/07/09 09:48:39;;;;;;;7.37;3.27;;;;;;;32.81;34.86;97022.69;2074666;28;20431;-58
2023/07/09 09:49:42;;;;;;;5.13;2.67;;;;;;;32.52;35.34;97028.13;2057470;28;20471;-57
2023/07/09 09:50:46;;;;;;;6.00;3.57;;;;;;;32.76;35.80;97027.88;2055948;28;20465;-57
2023/07/09 09:51:48;;;;;;;5.50;3.30;;;;;;;32.81;36.01;97020.00;2059984;28;20940;-57
2023/07/09 09:52:50;;;;;;;5.37;3.30;;;;;;;33.00;35.57;97021.97;2069484;28;20433;-57
2023/07/09 09:53:57;;;;;;;6.20;3.30;;;;;;;33.09;35.58;97017.22;2070843;28;20432;-57
2023/07/09 09:55:09;;;;;;;7.90;3.33;;;;;;;33.13;36.21;97012.19;2071323;28;20519;-57
2023/07/09 09:56:24;;;;;;;7.20;3.27;;;;;;;33.19;35.83;97005.97;2071029;28;20423;-56
2023/07/09 10:01:02;;;;;;;4.93;3.00;;;;;;;32.75;36.05;97000.03;2084338;28;20564;-57
2023/07/09 10:02:20;;;;;;;7.50;3.20;;;;;;;32.66;36.32;96999.31;2081875;28;20431;-58
2023/07/09 10:03:33;;;;;;;6.57;3.30;;;;;;;33.03;35.77;97007.19;2080310;28;20427;-57
2023/07/09 10:04:34;;;;;;;5.63;2.90;;;;;;;32.94;36.28;97019.22;2079122;28;20443;-57
2023/07/09 10:05:44;;;;;;;6.43;3.03;;;;;;;32.58;35.38;97010.28;2073372;28;20584;-57
2023/07/09 10:06:50;;;;;;;6.70;4.13;;;;;;;32.34;35.68;97009.75;2074293;28;20958;-57
2023/07/09 10:08:17;;;;;;;8.80;3.17;;;;;;;33.02;35.09;97000.94;2070806;28;20462;-57
2023/07/09 10:09:45;;;;;;;9.47;3.10;;;;;;;33.26;34.94;96998.72;2075121;28;20965;-57
2023/07/09 10:10:47;;;;;;;6.57;2.90;;;;;;;33.56;34.24;97002.97;2073770;28;20821;-57
2023/07/09 10:12:06;;;;;;;6.27;2.97;;;;;;;33.04;34.72;97007.00;2070909;28;21097;-57
2023/07/09 10:13:31;;;;;;;6.60;3.23;;;;;;;33.26;35.47;97000.63;2072535;28;21026;-57
2023/07/09 10:14:45;;;;;;;9.03;3.87;;;;;;;33.36;35.66;96999.19;2070799;28;20438;-57
2023/07/09 10:15:55;;;;;;;6.10;3.33;;;;;;;33.73;34.87;96998.81;2080835;28;20470;-58
2023/07/09 10:17:25;;;;;;;5.53;3.07;;;;;;;34.11;34.75;97002.81;2081897;28;20902;-58
2023/07/09 10:18:43;;;;;;;7.20;3.40;;;;;;;34.22;34.16;96996.75;2072625;28;20444;-58
2023/07/09 10:20:26;;;;;;;9.40;3.80;;;;;;;34.61;33.71;96994.19;2074995;28;20431;-58
2023/07/09 10:22:06;;;;;;;8.33;3.20;;;;;;;35.02;33.49;96993.03;2068305;28;20460;-58
2023/07/09 10:23:21;;;;;;;7.67;3.53;;;;;;;34.40;33.61;97000.69;2066969;28;20501;-57
2023/07/09 10:24:29;;;;;;;4.97;3.40;;;;;;;34.73;33.13;96991.63;2071306;28;20831;-57
2023/07/09 10:25:45;;;;;;;7.90;3.33;;;;;;;34.77;33.39;96996.41;2073624;28;20558;-57
2023/07/09 10:27:00;;;;;;;8.03;3.10;;;;;;;35.15;32.87;96989.41;2078205;28;20431;-57
2023/07/09 10:28:20;;;;;;;12.03;3.83;;;;;;;34.53;33.02;96989.84;2076878;28;20465;-57
2023/07/09 10:30:03;;;;;;;8.47;3.10;;;;;;;33.95;33.17;96996.75;2074425;28;20470;-58
2023/07/09 10:32:00;;;;;;;5.17;2.93;;;;;;;33.69;32.69;96990.28;2073577;28;20463;-58
2023/07/09 10:33:12;;;;;;;7.47;3.97;;;;;;;34.00;32.92;96996.16;2072760;28;20457;-56
2023/07/09 10:34:22;;;;;;;4.83;3.10;;;;;;;34.17;32.58;96997.38;2072160;28;20436;-57
2023/07/09 10:35:37;;;;;;;11.10;2.87;;;;;;;33.72;33.30;96993.63;2074354;28;20471;-59
2023/07/09 10:36:57;;;;;;;5.43;3.50;;;;;;;33.84;33.02;96992.81;2075616;28;20477;-57
2023/07/09 10:38:17;;;;;;;7.60;3.50;;;;;;;33.88;32.75;96993.25;2074549;28;20426;-57
2023/07/09 10:39:27;;;;;;;5.60;3.27;;;;;;;33.11;33.26;96984.53;2074020;28;20428;-57
2023/07/09 10:40:47;;;;;;;8.43;3.60;;;;;;;33.17;34.02;96983.75;2074118;28;20482;-57
2023/07/09 10:41:56;;;;;;;7.23;3.30;;;;;;;32.83;33.43;96985.50;2070571;28;20439;-57
2023/07/09 10:43:00;;;;;;;8.83;3.63;;;;;;;33.24;33.19;96984.56;2072456;28;20485;-58
2023/07/09 10:44:10;;;;;;;6.97;3.10;;;;;;;33.30;33.16;96982.97;2072942;28;20473;-58
2023/07/09 10:45:16;;;;;;;7.30;3.40;;;;;;;33.24;32.87;96975.63;2068441;28;20682;-58
2023/07/09 10:46:25;;;;;;;8.47;3.90;;;;;;;33.61;32.12;96982.38;2072489;28;20446;-57
2023/07/09 10:47:38;;;;;;;11.03;3.73;;;;;;;33.66;32.39;96979.03;2078082;28;20450;-58
2023/07/09 10:48:49;;;;;;;7.40;3.00;;;;;;;33.58;32.67;96988.19;2077047;28;20435;-58
2023/07/09 10:49:52;;;;;;;7.13;3.87;;;;;;;33.32;31.70;96979.00;2073095;28;20426;-57
2023/07/09 10:50:53;;;;;;;10.40;3.50;;;;;;;32.84;31.53;96976.34;2073649;28;20428;-58
2023/07/09 10:52:04;;;;;;;7.67;3.50;;;;;;;33.51;31.32;96980.06;2070380;28;20431;-57
2023/07/09 10:53:14;;;;;;;15.43;3.60;;;;;;;33.62;30.57;96972.38;2072883;28;20513;-57
2023/07/09 10:54:41;;;;;;;11.17;4.10;;;;;;;33.90;30.38;96972.19;2073485;28;20427;-57
2023/07/09 10:56:02;;;;;;;10.30;4.20;;;;;;;34.78;29.74;96976.41;2074488;28;20470;-57
2023/07/09 10:57:14;;;;;;;11.73;4.50;;;;;;;34.41;30.88;96965.28;2074012;28;20434;-57
2023/07/09 10:58:35;;;;;;;10.67;3.97;;;;;;;34.80;30.58;96974.28;2072027;28;20451;-57
2023/07/09 10:59:40;;;;;;;9.87;3.50;;;;;;;35.51;30.25;96970.84;2073146;28;20439;-57
2023/07/09 11:00:42;;;;;;;7.93;3.53;;;;;;;35.15;30.65;96965.81;2071244;28;20844;-57
2023/07/09 11:01:49;;;;;;;6.07;3.20;;;;;;;35.52;30.92;96970.59;2073803;28;20768;-57
2023/07/09 11:03:00;;;;;;;5.53;3.30;;;;;;;36.12;30.17;96969.28;2073914;28;20902;-57
2023/07/09 11:04:28;;;;;;;6.00;3.17;;;;;;;36.63;29.64;96959.16;2074036;28;20419;-58
2023/07/09 11:05:31;;;;;;;6.73;3.30;;;;;;;37.02;28.98;96964.34;2075217;28;20448;-58
2023/07/09 11:06:41;;;;;;;6.23;3.60;;;;;;;36.66;29.71;96961.44;2074694;28;20761;-57
2023/07/09 11:07:48;;;;;;;8.23;3.00;;;;;;;36.29;30.14;96959.50;2074146;28;20845;-58
2023/07/09 11:08:53;;;;;;;9.60;3.73;;;;;;;36.80;30.29;96961.25;2071899;28;20895;-58
2023/07/09 11:09:57;;;;;;;7.83;3.60;;;;;;;36.83;30.26;96955.38;2076501;28;20427;-58
2023/07/09 11:11:10;;;;;;;10.70;3.67;;;;;;;36.25;30.63;96957.44;2077371;28;20419;-57
2023/07/09 11:12:17;;;;;;;15.50;4.53;;;;;;;35.98;31.07;96957.72;2073630;28;20466;-58
2023/07/09 11:13:26;;;;;;;7.40;3.67;;;;;;;35.71;31.18;96959.81;2071809;28;21037;-57
2023/07/09 11:14:53;;;;;;;5.83;3.33;;;;;;;34.94;31.78;96964.25;2068078;28;20490;-57
2023/07/09 11:15:56;;;;;;;11.90;4.13;;;;;;;34.79;31.71;96966.38;2068449;28;20472;-58
2023/07/09 11:16:59;;;;;;;7.57;3.47;;;;;;;35.15;31.79;96964.97;2067339;28;20511;-58
2023/07/09 11:18:05;;;;;;;7.33;4.20;;;;;;;34.85;32.30;96967.41;2068609;28;20927;-57
2023/07/09 11:19:16;;;;;;;8.47;4.30;;;;;;;34.33;32.29;96963.63;2070588;28;20428;-57
2023/07/09 11:20:43;;;;;;;12.73;3.93;;;;;;;34.55;32.75;96959.78;2068132;28;20471;-57
2023/07/09 11:21:58;;;;;;;7.97;3.80;;;;;;;34.63;32.74;96976.66;2068413;28;20486;-57
2023/07/09 11:23:04;;;;;;;7.33;3.83;;;;;;;34.40;32.09;96960.03;2066271;28;20813;-57
2023/07/09 11:24:25;;;;;;;7.43;3.00;;;;;;;34.67;31.73;96958.91;2067704;28;20438;-58
2023/07/09 11:25:29;;;;;;;8.83;3.50;;;;;;;34.72;31.89;96958.28;2064394;28;20499;-58
2023/07/09 11:26:36;;;;;;;9.50;3.57;;;;;;;35.81;31.55;96952.00;2066327;28;20535;-57
2023/07/09 11:27:56;;;;;;;8.10;3.03;;;;;;;35.82;30.39;96948.25;2068848;28;20435;-57
2023/07/09 11:29:06;;;;;;;7.53;3.90;;;;;;;36.06;30.62;96953.88;2068935;28;20857;-57
2023/07/09 11:30:22;;;;;;;6.40;3.50;;;;;;;35.59;29.91;96954.25;2067018;28;20431;-57
2023/07/09 11:31:38;;;;;;;4.67;3.03;;;;;;;35.47;30.06;96962.28;2066786;28;20759;-57
2023/07/09 11:32:46;;;;;;;9.30;3.60;;;;;;;35.06;31.52;96952.72;2068780;28;20481;-57
2023/07/09 11:33:58;;;;;;;5.07;2.60;;;;;;;34.41;31.27;96961.72;2067740;28;20871;-57
2023/07/09 11:35:08;;;;;;;9.00;3.50;;;;;;;34.78;31.26;96951.16;2067534;28;20494;-57
2023/07/09 11:36:22;;;;;;;7.90;3.80;;;;;;;34.45;31.58;96952.09;2069213;28;20983;-58
2023/07/09 11:37:25;;;;;;;7.43;4.27;;;;;;;34.66;31.29;96957.28;2069709;28;20434;-58
2023/07/09 11:38:41;;;;;;;4.70;3.00;;;;;;;35.04;30.29;96952.13;2068801;28;20562;-57
2023/07/09 11:39:48;;;;;;;8.40;3.40;;;;;;;35.02;30.63;96941.47;2068800;28;20443;-57
2023/07/09 11:40:54;;;;;;;6.70;3.03;;;;;;;35.58;30.86;96956.16;2067157;28;20555;-58
2023/07/09 11:41:56;;;;;;;11.20;3.87;;;;;;;35.68;30.35;96950.25;2067656;28;20447;-58
2023/07/09 11:42:59;;;;;;;7.10;2.73;;;;;;;36.01;30.11;96949.16;2067176;28;20427;-57
2023/07/09 11:44:05;;;;;;;11.37;3.93;;;;;;;35.17;30.31;96948.47;2069297;28;20428;-57
2023/07/09 11:45:13;;;;;;;7.60;3.40;;;;;;;34.89;30.84;96946.97;2067872;28;21091;-57
2023/07/09 11:46:20;;;;;;;5.70;3.83;;;;;;;35.25;29.84;96949.06;2068522;28;20427;-58
2023/07/09 11:47:26;;;;;;;5.20;3.07;;;;;;;35.15;30.36;96946.00;2068904;28;20433;-57
2023/07/09 11:48:34;;;;;;;8.23;3.60;;;;;;;35.40;30.25;96945.22;2064807;28;20464;-57
2023/07/09 11:49:54;;;;;;;9.40;3.40;;;;;;;35.35;30.54;96942.31;2069579;28;20696;-57
2023/07/09 11:51:01;;;;;;;9.40;3.33;;;;;;;35.76;30.07;96938.28;2067643;28;20927;-58
2023/07/09 11:52:04;;;;;;;10.83;3.13;;;;;;;35.73;30.07;96946.84;2067723;28;20440;-57
2023/07/09 11:53:12;;;;;;;6.57;3.00;;;;;;;35.70;29.51;96942.69;2067754;28;20935;-57
2023/07/09 11:54:13;;;;;;;5.63;3.30;;;;;;;35.70;30.48;96934.53;2064559;28;20428;-57
2023/07/09 11:55:24;;;;;;;8.70;3.50;;;;;;;36.21;29.51;96939.94;2066276;28;20800;-57
2023/07/09 11:56:25;;;;;;;7.03;3.33;;;;;;;35.67;29.58;96945.00;2068013;28;20908;-57
2023/07/09 11:57:28;;;;;;;6.87;3.50;;;;;;;35.40;30.50;96940.66;2067013;28;20428;-57
2023/07/09 11:58:29;;;;;;;9.40;3.50;;;;;;;35.41;30.45;96946.88;2066349;28;20982;-58
2023/07/09 11:59:38;;;;;;;6.57;3.33;;;;;;;35.57;30.00;96943.63;2065886;28;20466;-57
2023/07/09 12:00:41;;;;;;;6.23;3.50;;;;;;;35.17;29.83;96945.78;2067221;28;20483;-57
2023/07/09 12:01:45;;;;;;;6.07;2.97;;;;;;;34.75;30.21;96940.75;2067647;28;20468;-57
2023/07/09 12:02:47;;;;;;;5.23;3.20;;;;;;;34.88;30.63;96942.59;2067036;28;20773;-58
2023/07/09 12:03:49;;;;;;;6.50;3.07;;;;;;;35.91;30.11;96949.66;2064550;28;20447;-57
2023/07/09 12:04:52;;;;;;;7.27;3.60;;;;;;;36.60;29.91;96941.41;2065766;28;20433;-57
2023/07/09 12:06:06;;;;;;;10.87;4.00;;;;;;;37.09;29.14;96927.81;2066903;28;20531;-57
2023/07/09 12:07:13;;;;;;;6.93;2.80;;;;;;;37.06;29.08;96938.34;2066041;28;20428;-57
2023/07/09 12:08:16;;;;;;;9.07;4.07;;;;;;;37.44;28.50;96930.91;2066803;28;20916;-57
2023/07/09 12:09:20;;;;;;;5.17;2.83;;;;;;;37.02;29.13;96937.16;2068394;28;20997;-57
2023/07/09 12:10:24;;;;;;;6.20;3.27;;;;;;;36.69;29.26;96938.38;2065814;28;20464;-57
2023/07/09 12:11:31;;;;;;;5.17;3.10;;;;;;;36.61;29.52;96934.91;2068900;28;20556;-57
2023/07/09 12:12:32;;;;;;;5.73;3.17;;;;;;;36.67;28.90;96935.06;2069289;28;20905;-57
2023/07/09 12:13:40;;;;;;;5.93;3.40;;;;;;;36.26;28.97;96932.75;2064411;28;20453;-58
2023/07/09 12:14:41;;;;;;;4.87;2.70;;;;;;;36.04;29.26;96942.44;2066222;28;20960;-57
2023/07/09 12:15:43;;;;;;;7.43;3.30;;;;;;;35.01;30.32;96934.38;2064039;28;20495;-57
2023/07/09 12:16:50;;;;;;;6.03;3.17;;;;;;;35.53;29.32;96936.13;2068013;28;20436;-57
2023/07/09 12:18:12;;;;;;;8.60;3.00;;;;;;;36.83;28.82;96936.31;2069585;28;20435;-57
2023/07/09 12:19:16;;;;;;;6.77;3.40;;;;;;;37.27;28.08;96931.53;2068588;28;20515;-58
2023/07/09 12:20:17;;;;;;;8.87;3.47;;;;;;;37.49;27.43;96937.28;2066572;28;20467;-58
2023/07/09 12:21:19;;;;;;;5.63;2.90;;;;;;;37.35;28.31;96927.69;2067894;28;20510;-57
2023/07/09 12:22:22;;;;;;;5.77;2.83;;;;;;;36.80;28.62;96924.00;2069443;28;20480;-57
2023/07/09 12:23:30;;;;;;;6.23;3.17;;;;;;;36.69;28.36;96931.03;2070204;28;20535;-57
2023/07/09 12:24:41;;;;;;;8.23;3.93;;;;;;;36.83;28.59;96928.97;2066046;28;20429;-57
2023/07/09 12:25:50;;;;;;;6.03;3.20;;;;;;;37.17;27.96;96918.50;2065962;28;20463;-58
2023/07/09 12:26:58;;;;;;;10.20;3.80;;;;;;;36.97;27.73;96915.25;2067923;28;20429;-58
2023/07/09 12:27:59;;;;;;;7.63;2.90;;;;;;;37.00;27.90;96929.22;2068858;28;20429;-58
2023/07/09 12:29:01;;;;;;;7.33;2.97;;;;;;;36.24;28.03;96917.75;2068159;28;20427;-57
2023/07/09 12:30:03;;;;;;;6.13;2.63;;;;;;;35.66;29.00;96917.03;2063811;28;20449;-57
2023/07/09 12:31:04;;;;;;;6.60;3.57;;;;;;;35.85;27.45;96920.63;2064689;28;20912;-58
2023/07/09 12:32:13;;;;;;;7.90;3.30;;;;;;;36.09;27.52;96916.22;2068532;28;20420;-58
2023/07/09 12:33:19;;;;;;;5.00;2.97;;;;;;;35.71;27.51;96919.09;2068073;28;20433;-57
2023/07/09 12:34:21;;;;;;;5.40;2.53;;;;;;;35.79;27.00;96908.75;2067484;28;20467;-58
2023/07/09 12:35:22;;;;;;;8.17;3.00;;;;;;;35.86;27.26;96924.16;2067937;28;20460;-57
2023/07/09 12:36:25;;;;;;;5.50;2.70;;;;;;;35.85;27.67;96914.38;2069020;28;20432;-57
2023/07/09 12:37:31;;;;;;;5.07;3.10;;;;;;;35.82;27.55;96912.94;2066368;28;20432;-57
2023/07/09 12:38:48;;;;;;;5.70;3.30;;;;;;;36.08;26.82;96913.75;2064365;28;20465;-57
2023/07/09 12:39:52;;;;;;;7.47;2.43;;;;;;;36.83;26.13;96904.50;2065089;28;20428;-57
2023/07/09 12:40:55;;;;;;;5.97;2.83;;;;;;;37.20;26.00;96915.28;2066723;28;20587;-57
2023/07/09 12:42:00;;;;;;;8.07;2.60;;;;;;;37.02;26.31;96920.81;2063960;28;20840;-58
2023/07/09 12:43:03;;;;;;;9.03;3.27;;;;;;;36.96;26.06;96908.13;2065685;28;20481;-57
2023/07/09 12:44:05;;;;;;;7.70;2.93;;;;;;;36.15;26.66;96906.38;2067230;28;20503;-57
2023/07/09 12:45:15;;;;;;;7.83;3.17;;;;;;;36.35;27.20;96906.13;2067657;28;20428;-57
2023/07/09 12:46:16;;;;;;;6.60;2.87;;;;;;;36.01;26.99;96902.13;2067850;28;20515;-57
2023/07/09 12:47:23;;;;;;;6.40;2.47;;;;;;;36.49;26.70;96908.72;2068732;28;20443;-57
2023/07/09 12:48:27;;;;;;;7.67;3.13;;;;;;;35.71;27.80;96909.06;2067321;28;20953;-57
2023/07/09 12:49:36;;;;;;;7.87;3.83;;;;;;;35.76;27.47;96906.50;2064133;28;20443;-57
2023/07/09 12:50:38;;;;;;;5.67;2.63;;;;;;;35.91;26.92;96898.03;2065756;28;20460;-57
2023/07/09 12:51:39;;;;;;;6.47;2.73;;;;;;;35.55;27.28;96894.16;2064175;28;20437;-57
2023/07/09 12:52:49;;;;;;;7.47;2.70;;;;;;;35.69;28.09;96894.03;2065765;28;20535;-58
2023/07/09 12:54:18;;;;;;;7.90;2.67;;;;;;;35.32;27.79;96883.88;2068852;28;20432;-57
2023/07/09 12:55:25;;;;;;;6.93;2.90;;;;;;;35.87;27.34;96887.84;2067392;28;21119;-57
2023/07/09 12:56:27;;;;;;;6.07;3.00;;;;;;;35.81;27.96;96889.53;2067822;28;20462;-57
2023/07/09 12:57:30;;;;;;;6.13;2.60;;;;;;;35.40;27.67;96886.34;2064189;28;20541;-57
2023/07/09 12:58:37;;;;;;;6.20;2.90;;;;;;;36.05;27.04;96885.16;2065470;28;20916;-57
2023/07/09 12:59:48;;;;;;;6.70;2.80;;;;;;;37.01;26.41;96886.50;2067139;28;20433;-57
2023/07/09 13:00:54;;;;;;;5.47;2.33;;;;;;;37.25;25.92;96885.47;2063583;28;20480;-57
2023/07/09 13:02:02;;;;;;;14.83;3.17;;;;;;;37.72;25.87;96882.00;2065936;28;20499;-57
2023/07/09 13:03:14;;;;;;;8.27;3.10;;;;;;;38.35;25.23;96887.00;2067824;28;20506;-58
2023/07/09 13:04:15;;;;;;;4.60;2.43;;;;;;;39.10;24.23;96881.59;2067195;28;20793;-58
2023/07/09 13:05:21;;;;;;;5.10;2.50;;;;;;;39.50;24.26;96881.53;2063638;28;20504;-58
2023/07/09 13:06:34;;;;;;;4.97;2.40;;;;;;;39.69;24.44;96878.53;2065349;28;20428;-57
2023/07/09 13:07:38;;;;;;;6.37;3.00;;;;;;;39.66;24.72;96879.88;2068117;28;21095;-58
2023/07/09 13:08:43;;;;;;;9.83;3.03;;;;;;;39.67;24.92;96875.25;2065236;28;20912;-57
2023/07/09 13:09:49;;;;;;;8.50;3.17;;;;;;;40.06;24.76;96875.22;2067148;28;20434;-57
2023/07/09 13:10:53;;;;;;;7.47;2.50;;;;;;;39.09;25.38;96867.13;2066301;28;20465;-58
2023/07/09 13:11:55;;;;;;;7.53;2.77;;;;;;;39.34;25.31;96872.25;2066431;28;20452;-57
2023/07/09 13:13:01;;;;;;;5.90;2.80;;;;;;;38.85;25.15;96859.06;2067922;28;20499;-57
2023/07/09 13:14:04;;;;;;;8.40;2.80;;;;;;;38.72;25.66;96854.72;2067739;28;20428;-58
2023/07/09 13:15:21;;;;;;;5.17;2.53;;;;;;;39.68;25.83;96855.03;2067298;28;20448;-57
2023/07/09 13:16:23;;;;;;;5.10;2.60;;;;;;;40.30;25.44;96858.63;2067786;28;20439;-57
2023/07/09 13:17:29;;;;;;;4.70;2.73;;;;;;;40.38;25.23;96851.88;2067283;28;20510;-57
2023/07/09 13:18:31;;;;;;;6.70;3.10;;;;;;;39.72;25.24;96838.97;2066769;28;20739;-58
2023/07/09 13:19:33;;;;;;;6.87;2.40;;;;;;;39.47;25.81;96856.59;2068610;28;20522;-58
2023/07/09 13:20:40;;;;;;;7.67;3.00;;;;;;;39.03;25.83;96859.94;2066390;28;20499;-57
2023/07/09 13:21:42;;;;;;;5.53;2.93;;;;;;;38.41;26.32;96849.75;2063917;28;20516;-58
2023/07/09 13:22:44;;;;;;;6.00;2.80;;;;;;;38.50;26.31;96854.59;2065712;28;20495;-58
2023/07/09 13:23:47;;;;;;;7.37;2.90;;;;;;;38.76;26.03;96855.09;2065855;28;20479;-58
2023/07/09 13:24:48;;;;;;;5.40;2.60;;;;;;;38.68;26.79;96852.75;2064089;28;20977;-57
2023/07/09 13:25:51;;;;;;;6.20;3.10;;;;;;;38.11;27.18;96851.56;2063959;28;20464;-58
2023/07/09 13:26:53;;;;;;;9.23;2.90;;;;;;;37.87;27.29;96854.31;2064068;28;20544;-57
2023/07/09 13:27:55;;;;;;;7.63;3.13;;;;;;;37.09;27.94;96859.78;2064785;28;20436;-57
2023/07/09 13:28:56;;;;;;;8.80;3.50;;;;;;;37.72;27.81;96856.69;2067512;28;20429;-57
2023/07/09 13:29:58;;;;;;;5.53;2.90;;;;;;;37.18;27.57;96854.84;2067108;28;20432;-58
2023/07/09 13:31:09;;;;;;;8.40;3.40;;;;;;;36.91;27.79;96857.13;2064258;28;21015;-58
2023/07/09 13:32:13;;;;;;;7.83;3.70;;;;;;;37.48;27.39;96856.66;2065920;28;20483;-58
2023/07/09 13:33:15;;;;;;;10.43;3.10;;;;;;;36.58;27.89;96850.25;2070834;28;20424;-58
2023/07/09 13:34:22;;;;;;;7.20;2.87;;;;;;;36.50;27.75;96848.69;2071600;28;20460;-58
2023/07/09 13:35:25;;;;;;;7.10;2.83;;;;;;;36.44;28.45;96857.75;2069012;28;20464;-58
2023/07/09 13:36:27;;;;;;;7.43;3.20;;;;;;;36.57;28.32;96852.16;2067838;28;20439;-57
2023/07/09 13:37:28;;;;;;;5.83;3.20;;;;;;;36.38;28.30;96848.63;2068021;28;20533;-58
2023/07/09 13:38:30;;;;;;;7.30;3.70;;;;;;;36.60;28.15;96851.66;2065539;28;20872;-58
2023/07/09 13:39:31;;;;;;;7.10;2.90;;;;;;;36.98;27.99;96851.63;2066575;28;20440;-58
2023/07/09 13:40:33;;;;;;;7.83;3.27;;;;;;;36.91;28.25;96849.81;2067107;28;21021;-58
2023/07/09 13:41:34;;;;;;;8.73;3.63;;;;;;;37.12;27.88;96846.75;2068266;28;20424;-58
2023/07/09 13:42:36;;;;;;;6.33;3.50;;;;;;;37.45;27.68;96848.13;2068699;28;20460;-58
2023/07/09 13:43:39;;;;;;;6.30;2.97;;;;;;;37.76;27.24;96843.41;2067314;28;20440;-58
2023/07/09 13:44:43;;;;;;;5.20;2.57;;;;;;;38.51;27.03;96842.63;2066663;28;20436;-58
2023/07/09 13:45:45;;;;;;;8.60;3.50;;;;;;;39.42;26.00;96842.88;2070443;28;20550;-58
2023/07/09 13:46:47;;;;;;;11.87;3.40;;;;;;;39.78;25.59;96843.41;2071278;28;20925;-58
2023/07/09 13:47:50;;;;;;;5.70;3.60;;;;;;;40.39;24.66;96851.63;2066874;28;20437;-56
2023/07/09 13:48:51;;;;;;;7.07;3.87;;;;;;;40.63;25.17;96845.91;2067804;28;20889;-56
2023/07/09 13:49:53;;;;;;;5.37;3.33;;;;;;;40.42;24.36;96837.44;2063491;28;20436;-56
2023/07/09 13:50:55;;;;;;;7.17;3.47;;;;;;;39.23;25.55;96837.66;2067504;28;20435;-56
2023/07/09 13:51:59;;;;;;;5.90;3.33;;;;;;;38.67;25.69;96840.97;2066354;28;20988;-56
2023/07/09 13:53:00;;;;;;;6.80;3.00;;;;;;;38.91;25.74;96838.19;2063788;28;20425;-56
2023/07/09 13:54:06;;;;;;;6.30;3.10;;;;;;;39.41;25.57;96831.09;2065209;28;20424;-56
2023/07/09 13:55:17;;;;;;;4.97;3.10;;;;;;;38.21;25.76;96834.63;2066238;28;20759;-56
2023/07/09 13:56:18;;;;;;;6.50;3.23;;;;;;;37.90;25.88;96847.56;2067409;28;20572;-56
2023/07/09 13:57:21;;;;;;;9.20;3.13;;;;;;;37.84;25.40;96833.03;2067923;28;20428;-55
2023/07/09 13:58:26;;;;;;;7.70;2.87;;;;;;;38.06;25.90;96830.47;2066300;28;20468;-56
2023/07/09 13:59:28;;;;;;;9.03;3.93;;;;;;;37.52;25.77;96841.53;2068148;28;20424;-56
2023/07/09 14:00:30;;;;;;;4.57;2.97;;;;;;;37.02;26.07;96850.91;2066561;28;20790;-55
2023/07/09 14:01:31;;;;;;;6.00;2.70;;;;;;;37.00;25.89;96838.59;2063783;28;20429;-56
2023/07/09 14:02:33;;;;;;;7.67;3.00;;;;;;;37.01;26.05;96846.50;2066054;28;20463;-55
2023/07/09 14:03:35;;;;;;;4.93;2.47;;;;;;;36.68;26.79;96841.53;2068284;28;21126;-55
2023/07/09 14:04:37;;;;;;;3.90;2.60;;;;;;;35.71;26.53;96845.78;2068148;28;20429;-55
2023/07/09 14:05:38;;;;;;;9.03;3.00;;;;;;;36.41;26.43;96837.28;2064794;28;20564;-55
2023/07/09 14:06:41;;;;;;;6.00;2.33;;;;;;;36.60;26.85;96839.97;2065210;28;20551;-55
2023/07/09 14:07:42;;;;;;;5.30;3.23;;;;;;;36.82;26.18;96832.13;2065769;28;20912;-56
2023/07/09 14:08:44;;;;;;;6.50;3.10;;;;;;;36.71;26.35;96830.19;2070611;28;20511;-55
2023/07/09 14:09:45;;;;;;;7.60;2.63;;;;;;;36.48;26.27;96831.78;2064011;28;20916;-55
2023/07/09 14:10:47;;;;;;;5.70;3.10;;;;;;;36.13;26.43;96832.41;2069260;28;20544;-57
2023/07/09 14:11:53;;;;;;;7.97;2.93;;;;;;;36.11;26.58;96831.78;2063880;28;21008;-57
2023/07/09 14:12:56;;;;;;;7.37;3.00;;;;;;;36.01;26.73;96836.91;2066509;28;20419;-57
2023/07/09 14:13:58;;;;;;;7.53;3.47;;;;;;;36.18;25.75;96831.72;2068034;28;20428;-57
2023/07/09 14:15:00;;;;;;;6.53;3.10;;;;;;;36.35;26.14;96827.28;2066838;28;20869;-57
2023/07/09 14:16:02;;;;;;;6.47;2.47;;;;;;;36.55;25.76;96826.25;2066963;28;20525;-57
2023/07/09 14:17:04;;;;;;;7.10;2.73;;;;;;;36.54;25.76;96824.59;2067474;28;20427;-57